Time;durP1;ratioP1;P1;durP2;ratioP2;P2;SDS_P1;SDS_P2;PMS_P1;PMS_P2;Temp;Humidity;BMP_temperature;BMP_pressure;BME280_temperature;BME280_humidity;BME280_pressure;Samples;Min_cycle;Max_cycle;Signal;HPM_P1;HPM_P2
2023/03/11 00:00:48;;;;;;;15.35;7.78;;;20.50;69.90;;;;;;5048478;28;20048;-76
2023/03/11 00:03:17;;;;;;;13.68;7.13;;;20.50;70.50;;;;;;5032190;28;20075;-78
2023/03/11 00:05:44;;;;;;;11.43;7.50;;;20.50;70.80;;;;;;5048775;28;20053;-76
2023/03/11 00:08:16;;;;;;;13.95;8.10;;;20.50;70.60;;;;;;5048544;28;20536;-75
2023/03/11 00:10:43;;;;;;;12.60;6.95;;;20.40;70.10;;;;;;5047077;28;20032;-75
2023/03/11 00:13:12;;;;;;;13.93;7.65;;;20.40;69.90;;;;;;5060564;22;20598;-82
2023/03/11 00:15:39;;;;;;;17.73;7.78;;;20.40;70.50;;;;;;5012196;28;20033;-80
2023/03/11 00:18:05;;;;;;;13.32;7.82;;;20.30;69.90;;;;;;5033806;28;20095;-80
2023/03/11 00:20:35;;;;;;;11.85;7.35;;;20.40;69.90;;;;;;4997796;28;20040;-81
2023/03/11 00:23:03;;;;;;;16.80;8.40;;;20.30;69.80;;;;;;5045344;28;20094;-80
2023/03/11 00:25:30;;;;;;;13.10;8.00;;;20.30;70.60;;;;;;5015040;28;20041;-80
2023/03/11 00:27:57;;;;;;;12.10;7.82;;;20.30;70.10;;;;;;5029256;28;20031;-82
2023/03/11 00:30:24;;;;;;;12.43;7.22;;;20.20;70.10;;;;;;5049044;28;20503;-83
2023/03/11 00:32:55;;;;;;;12.15;7.30;;;20.30;70.90;;;;;;5011261;28;20021;-82
2023/03/11 00:35:28;;;;;;;12.52;7.18;;;20.30;70.00;;;;;;5030936;28;20507;-85
2023/03/11 00:38:00;;;;;;;13.70;7.63;;;20.20;70.20;;;;;;5032042;28;20083;-83
2023/03/11 00:40:28;;;;;;;12.98;8.18;;;20.20;69.90;;;;;;5047502;28;20087;-80
2023/03/11 00:42:54;;;;;;;13.23;7.05;;;20.20;70.40;;;;;;5031963;28;20395;-85
2023/03/11 00:45:21;;;;;;;12.27;7.90;;;20.20;69.90;;;;;;5039593;28;20037;-80
2023/03/11 00:47:47;;;;;;;12.38;7.25;;;20.20;70.00;;;;;;5030477;28;20029;-82
2023/03/11 00:50:20;;;;;;;12.90;7.57;;;20.20;69.80;;;;;;5028941;28;20036;-82
2023/03/11 00:52:47;;;;;;;14.55;7.47;;;20.20;70.00;;;;;;5015615;28;20025;-85
2023/03/11 00:55:16;;;;;;;12.10;7.05;;;20.10;70.30;;;;;;5037610;28;20021;-81
2023/03/11 00:57:44;;;;;;;15.57;7.47;;;20.20;69.90;;;;;;5019128;28;20052;-81
2023/03/11 01:00:17;;;;;;;11.52;7.05;;;20.10;69.90;;;;;;5035701;28;20086;-79
2023/03/11 01:02:44;;;;;;;14.20;7.20;;;20.20;70.80;;;;;;5038310;28;20025;-78
2023/03/11 01:05:10;;;;;;;9.77;7.18;;;19.90;59.70;;;;;;5035077;28;20033;-80
2023/03/11 01:07:36;;;;;;;8.38;6.35;;;18.30;50.80;;;;;;5034108;28;20494;-84
2023/03/11 01:10:04;;;;;;;9.38;6.47;;;18.40;54.40;;;;;;5022636;28;20032;-80
2023/03/11 01:12:30;;;;;;;10.75;6.03;;;18.70;56.60;;;;;;5035127;28;20025;-86
2023/03/11 01:14:56;;;;;;;9.57;6.00;;;18.90;57.70;;;;;;5033930;28;20154;-87
2023/03/11 01:17:21;;;;;;;12.45;5.60;;;19.20;58.30;;;;;;5048301;28;20033;-87
2023/03/11 01:19:48;;;;;;;8.82;5.63;;;19.30;58.90;;;;;;5048816;28;20120;-88
2023/03/11 01:22:14;;;;;;;7.53;4.97;;;19.50;59.50;;;;;;5034421;28;20051;-87
2023/03/11 01:24:41;;;;;;;7.18;5.40;;;19.60;60.70;;;;;;5001804;28;20546;-80
2023/03/11 01:27:07;;;;;;;7.38;5.00;;;19.60;61.10;;;;;;5018777;28;20040;-82
2023/03/11 01:29:33;;;;;;;11.90;4.80;;;19.70;61.40;;;;;;5028458;28;20037;-82
2023/03/11 01:31:58;;;;;;;8.48;4.63;;;19.70;61.30;;;;;;5036573;28;20034;-84
2023/03/11 01:34:25;;;;;;;5.90;4.40;;;19.70;61.50;;;;;;5036301;28;20401;-84
2023/03/11 01:36:51;;;;;;;6.25;4.25;;;19.70;61.70;;;;;;5053345;28;20029;-86
2023/03/11 01:39:18;;;;;;;7.43;4.35;;;19.80;61.90;;;;;;5020531;28;20040;-86
2023/03/11 01:41:44;;;;;;;5.43;3.83;;;19.80;62.00;;;;;;5031917;28;20033;-85
2023/03/11 01:44:11;;;;;;;5.80;3.75;;;19.80;62.40;;;;;;5017352;28;20041;-83
2023/03/11 01:46:53;;;;;;;7.63;3.72;;;19.80;62.20;;;;;;5001545;28;20066;-82
2023/03/11 01:49:23;;;;;;;5.68;3.85;;;19.80;62.10;;;;;;5050932;28;20029;-85
2023/03/11 01:51:51;;;;;;;7.05;4.10;;;19.80;62.20;;;;;;5050906;28;20032;-86
2023/03/11 01:54:25;;;;;;;5.45;3.30;;;19.90;62.20;;;;;;5034007;28;20083;-86
2023/03/11 01:56:53;;;;;;;6.22;3.47;;;19.80;62.40;;;;;;5017584;28;20055;-84
2023/03/11 01:59:24;;;;;;;5.60;3.80;;;19.90;62.50;;;;;;5032260;28;20078;-85
2023/03/11 02:02:03;;;;;;;5.28;3.25;;;19.90;62.60;;;;;;5053016;28;20025;-76
2023/03/11 02:04:34;;;;;;;9.05;3.35;;;19.90;63.00;;;;;;5044233;28;20047;-76
2023/03/11 02:07:00;;;;;;;8.70;3.60;;;19.60;53.20;;;;;;5014164;28;20075;-77
2023/03/11 02:09:26;;;;;;;8.95;2.72;;;19.20;50.40;;;;;;5048670;28;20021;-81
2023/03/11 02:11:52;;;;;;;6.00;2.63;;;19.00;49.30;;;;;;5033729;28;20414;-83
2023/03/11 02:14:20;;;;;;;7.20;2.40;;;19.10;50.90;;;;;;5018635;28;20163;-84
2023/03/11 02:16:46;;;;;;;7.82;2.78;;;19.30;52.30;;;;;;5040251;28;20115;-83
2023/03/11 02:19:40;;;;;;;5.90;2.20;;;19.30;52.80;;;;;;5052507;28;20219;-83
2023/03/11 02:22:09;;;;;;;10.25;2.90;;;19.40;53.80;;;;;;5035893;28;20037;-83
2023/03/11 02:24:43;;;;;;;7.63;2.30;;;19.50;54.50;;;;;;5036013;28;20029;-83
2023/03/11 02:27:12;;;;;;;6.68;2.50;;;19.50;55.10;;;;;;5035757;28;20033;-83
2023/03/11 02:29:39;;;;;;;6.00;2.78;;;19.60;55.90;;;;;;5032585;28;20071;-83
2023/03/11 02:32:08;;;;;;;3.72;2.05;;;19.60;56.40;;;;;;5020372;28;20045;-83
2023/03/11 02:34:37;;;;;;;3.63;2.38;;;19.60;56.70;;;;;;5036351;28;20029;-83
2023/03/11 02:37:09;;;;;;;3.30;2.30;;;19.60;57.00;;;;;;5035776;28;20041;-83
2023/03/11 02:39:48;;;;;;;6.13;2.33;;;19.60;57.50;;;;;;5036016;28;20029;-83
2023/03/11 02:42:20;;;;;;;10.20;2.58;;;19.60;57.80;;;;;;5053631;28;20048;-84
2023/03/11 02:45:13;;;;;;;4.45;2.00;;;19.60;58.10;;;;;;5039420;28;20420;-84
2023/03/11 02:47:40;;;;;;;5.97;2.45;;;19.70;58.50;;;;;;5037478;28;20025;-83
2023/03/11 02:50:10;;;;;;;4.50;1.90;;;19.70;58.90;;;;;;5025061;28;20035;-83
2023/03/11 02:52:36;;;;;;;5.70;2.47;;;19.70;59.10;;;;;;5019216;28;20048;-83
2023/03/11 02:55:03;;;;;;;3.42;2.03;;;19.70;59.30;;;;;;5002953;28;20029;-83
2023/03/11 02:57:29;;;;;;;8.95;2.67;;;19.60;59.50;;;;;;5051646;28;20060;-83
2023/03/11 02:59:55;;;;;;;3.72;2.15;;;19.70;59.60;;;;;;5019042;28;20130;-84
2023/03/11 03:02:21;;;;;;;6.75;1.95;;;19.70;59.70;;;;;;5035188;28;20473;-84
2023/03/11 03:04:48;;;;;;;4.95;2.33;;;19.70;59.90;;;;;;5035496;28;20040;-84
2023/03/11 03:07:15;;;;;;;3.45;1.95;;;19.70;60.20;;;;;;5002075;28;20463;-83
2023/03/11 03:09:40;;;;;;;2.35;1.77;;;19.70;60.00;;;;;;5052870;28;20100;-82
2023/03/11 03:12:07;;;;;;;3.47;1.95;;;19.70;59.90;;;;;;5018592;28;20051;-82
2023/03/11 03:14:34;;;;;;;5.63;2.00;;;19.70;60.30;;;;;;5034966;28;20041;-82
2023/03/11 03:17:00;;;;;;;4.38;2.00;;;19.70;60.20;;;;;;5001536;28;20029;-84
2023/03/11 03:19:26;;;;;;;3.80;1.95;;;19.70;60.50;;;;;;5034752;28;20504;-84
2023/03/11 03:21:53;;;;;;;5.90;1.88;;;19.70;60.50;;;;;;5018590;28;20472;-84
2023/03/11 03:24:20;;;;;;;5.07;1.90;;;19.70;60.50;;;;;;5018289;28;20033;-84
2023/03/11 03:26:47;;;;;;;5.18;1.92;;;19.70;60.70;;;;;;5018247;28;20033;-83
2023/03/11 03:29:13;;;;;;;3.63;1.90;;;19.70;60.60;;;;;;5034582;28;20535;-83
2023/03/11 03:31:39;;;;;;;4.65;2.17;;;19.70;60.90;;;;;;5034539;28;20029;-83
2023/03/11 03:34:05;;;;;;;5.80;2.10;;;19.70;61.00;;;;;;5034387;28;20028;-84
2023/03/11 03:36:31;;;;;;;2.22;1.67;;;19.70;61.20;;;;;;5017608;28;20068;-83
2023/03/11 03:39:01;;;;;;;4.03;1.98;;;19.70;60.80;;;;;;5034545;28;20037;-83
2023/03/11 03:41:31;;;;;;;5.15;1.98;;;19.70;61.30;;;;;;5018629;28;20438;-83
2023/03/11 03:43:57;;;;;;;7.00;1.90;;;19.70;61.40;;;;;;5034397;28;20037;-87
2023/03/11 03:46:23;;;;;;;7.50;1.88;;;19.70;61.10;;;;;;5001311;28;20036;-87
2023/03/11 03:48:52;;;;;;;5.88;2.00;;;19.70;61.10;;;;;;5051172;28;20029;-88
2023/03/11 03:51:18;;;;;;;4.88;1.90;;;19.70;61.10;;;;;;5018479;28;20040;-87
2023/03/11 03:53:57;;;;;;;6.38;1.67;;;19.70;61.50;;;;;;5034338;28;20073;-87
2023/03/11 03:56:24;;;;;;;2.75;1.90;;;19.70;61.30;;;;;;5033868;28;20040;-86
2023/03/11 03:58:50;;;;;;;2.38;1.65;;;19.70;61.30;;;;;;5033311;28;20025;-87
2023/03/11 04:01:18;;;;;;;2.88;1.60;;;19.70;61.40;;;;;;5017831;28;20028;-87
2023/03/11 04:03:44;;;;;;;3.92;1.77;;;19.70;61.40;;;;;;5017950;28;20083;-84
2023/03/11 04:06:16;;;;;;;3.80;2.17;;;19.70;61.60;;;;;;5033533;28;20033;-84
2023/03/11 04:08:42;;;;;;;6.40;2.25;;;19.70;61.30;;;;;;5017690;28;20033;-83
2023/03/11 04:11:10;;;;;;;6.18;1.70;;;19.70;61.50;;;;;;5017463;28;20033;-84
2023/03/11 04:13:36;;;;;;;2.95;1.60;;;19.70;61.50;;;;;;5033643;28;20047;-84
2023/03/11 04:16:04;;;;;;;2.83;1.60;;;19.70;61.30;;;;;;5017171;28;20380;-84
2023/03/11 04:18:30;;;;;;;4.10;1.80;;;19.70;61.60;;;;;;5033916;28;20025;-84
2023/03/11 04:20:56;;;;;;;4.03;1.70;;;19.70;61.60;;;;;;5033770;28;20043;-84
2023/03/11 04:23:22;;;;;;;4.22;1.90;;;19.70;61.60;;;;;;5033759;28;20068;-84
2023/03/11 04:25:48;;;;;;;4.22;1.80;;;19.70;61.70;;;;;;5017004;28;20032;-84
2023/03/11 04:28:14;;;;;;;2.67;1.60;;;19.70;61.90;;;;;;5033384;28;20471;-84
2023/03/11 04:30:42;;;;;;;4.57;1.77;;;19.70;61.60;;;;;;5033645;28;20486;-84
2023/03/11 04:33:08;;;;;;;3.70;1.48;;;19.70;61.60;;;;;;5033535;28;20040;-84
2023/03/11 04:35:37;;;;;;;2.88;1.45;;;19.70;61.70;;;;;;5017131;28;20086;-84
2023/03/11 04:38:03;;;;;;;4.22;1.88;;;19.70;61.60;;;;;;5050055;28;20100;-85
2023/03/11 04:40:29;;;;;;;2.15;1.48;;;19.70;61.50;;;;;;5017357;28;20025;-84
2023/03/11 04:42:56;;;;;;;3.55;1.80;;;19.80;62.00;;;;;;5033465;28;20039;-83
2023/03/11 04:45:22;;;;;;;3.85;1.50;;;19.80;62.10;;;;;;5033431;28;20029;-84
2023/03/11 04:47:52;;;;;;;3.05;1.80;;;19.70;62.10;;;;;;5033384;28;20029;-83
2023/03/11 04:50:18;;;;;;;4.10;1.80;;;19.80;62.20;;;;;;5017278;28;20036;-83
2023/03/11 04:52:45;;;;;;;3.80;1.80;;;19.70;62.70;;;;;;5017157;28;20029;-84
2023/03/11 04:55:12;;;;;;;2.38;1.65;;;19.70;61.60;;;;;;5017015;28;20033;-84
2023/03/11 04:57:40;;;;;;;2.58;1.70;;;19.80;61.90;;;;;;5033117;28;20267;-84
2023/03/11 05:00:09;;;;;;;1.70;1.50;;;19.70;62.50;;;;;;5033320;28;20086;-86
2023/03/11 05:02:36;;;;;;;2.45;1.60;;;19.70;62.00;;;;;;5016971;28;20123;-84
2023/03/11 05:05:01;;;;;;;3.30;1.75;;;19.70;61.90;;;;;;5017522;28;20473;-85
2023/03/11 05:07:27;;;;;;;2.75;1.73;;;19.70;62.00;;;;;;5032975;28;20078;-84
2023/03/11 05:09:54;;;;;;;2.00;1.50;;;19.70;62.30;;;;;;5033296;28;20021;-84
2023/03/11 05:12:20;;;;;;;2.45;1.50;;;19.70;62.20;;;;;;5049715;28;20522;-84
2023/03/11 05:14:49;;;;;;;2.42;1.50;;;19.70;62.40;;;;;;5033068;28;20025;-84
2023/03/11 05:17:18;;;;;;;4.20;1.60;;;19.70;62.30;;;;;;5016378;28;20033;-84
2023/03/11 05:19:45;;;;;;;3.65;1.90;;;19.70;62.40;;;;;;5033270;28;20036;-84
2023/03/11 05:22:28;;;;;;;2.92;1.48;;;19.70;62.40;;;;;;5016733;28;20037;-83
2023/03/11 05:24:57;;;;;;;3.60;1.65;;;19.70;62.30;;;;;;5018038;28;20048;-83
2023/03/11 05:27:23;;;;;;;2.42;1.67;;;19.70;62.50;;;;;;5032120;28;20033;-82
2023/03/11 05:29:53;;;;;;;;;;;19.70;62.40;;;;;;5033358;28;20029;-83
2023/03/11 05:32:21;;;;;;;4.78;1.33;;;19.70;62.40;;;;;;5049559;28;19975;-83
2023/03/11 05:34:48;;;;;;;3.35;1.95;;;19.70;62.50;;;;;;5033032;28;20029;-82
2023/03/11 05:37:15;;;;;;;1.95;1.40;;;19.70;62.60;;;;;;5032964;28;20029;-83
2023/03/11 05:39:41;;;;;;;6.28;1.90;;;19.70;62.70;;;;;;5051346;28;20087;-83
2023/03/11 05:42:08;;;;;;;2.00;1.55;;;19.70;62.60;;;;;;5036574;28;20447;-83
2023/03/11 05:44:35;;;;;;;5.65;1.95;;;19.70;62.60;;;;;;5020352;28;20129;-85
2023/03/11 05:47:01;;;;;;;2.58;1.67;;;19.70;62.50;;;;;;5019931;28;20444;-84
2023/03/11 05:49:28;;;;;;;3.30;1.58;;;19.70;62.60;;;;;;5020146;28;20083;-85
2023/03/11 05:51:55;;;;;;;2.35;1.80;;;19.70;62.30;;;;;;5020257;28;20055;-84
2023/03/11 05:54:22;;;;;;;1.80;1.50;;;19.70;63.30;;;;;;5036260;28;20048;-85
2023/03/11 05:56:50;;;;;;;2.72;1.48;;;19.70;62.70;;;;;;5019789;28;20033;-83
2023/03/11 05:59:17;;;;;;;2.15;1.70;;;19.80;62.30;;;;;;5036552;28;20033;-83
2023/03/11 06:01:47;;;;;;;2.67;1.85;;;19.80;63.10;;;;;;5036243;28;20040;-82
2023/03/11 06:04:13;;;;;;;2.88;1.83;;;19.70;62.20;;;;;;5036173;28;20040;-83
2023/03/11 06:06:40;;;;;;;3.33;2.20;;;19.80;62.20;;;;;;5052402;28;20400;-85
2023/03/11 06:09:10;;;;;;;7.20;1.85;;;19.80;62.50;;;;;;5036147;28;20029;-84
2023/03/11 06:11:35;;;;;;;4.50;1.90;;;19.80;62.90;;;;;;5052749;28;20029;-83
2023/03/11 06:14:01;;;;;;;3.75;1.80;;;19.80;62.50;;;;;;5081449;22;20409;-79
2023/03/11 06:16:31;;;;;;;4.53;1.80;;;19.80;63.00;;;;;;5044620;28;20036;-78
2023/03/11 06:19:00;;;;;;;2.90;1.73;;;19.80;63.30;;;;;;5056686;28;20031;-78
2023/03/11 06:21:29;;;;;;;3.30;1.83;;;19.80;62.80;;;;;;5056344;28;20032;-78
2023/03/11 06:23:55;;;;;;;3.17;1.88;;;19.80;62.50;;;;;;5074814;28;20396;-78
2023/03/11 06:26:22;;;;;;;2.85;1.90;;;19.80;62.50;;;;;;5056315;28;20520;-78
2023/03/11 06:28:49;;;;;;;2.55;2.00;;;19.80;63.00;;;;;;5056858;28;20427;-78
2023/03/11 06:31:18;;;;;;;2.35;1.70;;;19.80;62.70;;;;;;5056567;28;20035;-78
2023/03/11 06:33:45;;;;;;;2.33;1.70;;;19.80;62.60;;;;;;5039844;28;20028;-78
2023/03/11 06:36:13;;;;;;;3.53;1.90;;;19.80;62.80;;;;;;5056105;28;20036;-79
2023/03/11 06:38:39;;;;;;;4.57;2.10;;;19.80;62.60;;;;;;5074130;28;20071;-79
2023/03/11 06:41:06;;;;;;;2.38;1.70;;;19.80;62.50;;;;;;5039612;28;20111;-79
2023/03/11 06:43:34;;;;;;;2.55;1.75;;;19.80;62.40;;;;;;5056234;28;20036;-79
2023/03/11 06:46:17;;;;;;;4.40;2.13;;;19.80;63.00;;;;;;5039367;28;20040;-79
2023/03/11 06:48:45;;;;;;;4.82;2.05;;;19.80;62.40;;;;;;5056456;28;20028;-78
2023/03/11 06:51:11;;;;;;;3.85;2.13;;;19.80;62.80;;;;;;5056334;28;20362;-79
2023/03/11 06:53:37;;;;;;;4.90;2.17;;;19.90;62.80;;;;;;5056296;28;20040;-79
2023/03/11 06:56:05;;;;;;;5.68;2.50;;;19.80;62.50;;;;;;5056026;28;20082;-78
2023/03/11 06:58:36;;;;;;;6.90;2.30;;;19.80;62.80;;;;;;5056499;28;20032;-79
2023/03/11 07:01:09;;;;;;;4.45;2.63;;;19.80;62.40;;;;;;5055927;28;20039;-79
2023/03/11 07:03:37;;;;;;;4.03;2.10;;;19.80;62.50;;;;;;5055870;28;20044;-80
2023/03/11 07:06:04;;;;;;;4.93;2.20;;;19.80;62.40;;;;;;5056121;28;20038;-79
2023/03/11 07:08:30;;;;;;;5.82;2.00;;;19.80;62.50;;;;;;5039331;28;20044;-80
2023/03/11 07:11:04;;;;;;;3.85;2.30;;;19.80;63.00;;;;;;5056147;28;20044;-79
2023/03/11 07:13:30;;;;;;;5.10;2.42;;;19.80;62.50;;;;;;5055640;28;20028;-79
2023/03/11 07:16:17;;;;;;;3.67;2.10;;;19.80;62.40;;;;;;5055649;28;20122;-80
2023/03/11 07:18:45;;;;;;;7.05;2.35;;;19.80;62.50;;;;;;5055920;28;20035;-79
2023/03/11 07:21:14;;;;;;;6.07;2.30;;;19.80;62.60;;;;;;5055536;28;20028;-79
2023/03/11 07:23:40;;;;;;;3.60;2.20;;;19.80;62.40;;;;;;5073214;28;20033;-78
2023/03/11 07:26:10;;;;;;;3.58;2.13;;;19.80;62.20;;;;;;5073093;28;20119;-78
2023/03/11 07:28:37;;;;;;;7.90;2.30;;;19.80;63.00;;;;;;5073037;28;20059;-79
2023/03/11 07:31:07;;;;;;;3.97;2.20;;;19.80;62.40;;;;;;5073092;28;20017;-79
2023/03/11 07:33:33;;;;;;;8.55;2.53;;;19.80;62.40;;;;;;5073069;28;20032;-79
2023/03/11 07:36:03;;;;;;;3.28;2.25;;;19.80;62.40;;;;;;5073186;28;20217;-80
2023/03/11 07:38:29;;;;;;;;;;;19.80;62.60;;;;;;5073189;28;20040;-79
2023/03/11 07:40:58;;;;;;;5.55;2.22;;;19.80;62.50;;;;;;5072871;28;19924;-79
2023/03/11 07:43:24;;;;;;;;;;;19.80;62.50;;;;;;5073392;28;20038;-79
2023/03/11 07:45:50;;;;;;;5.70;2.45;;;19.80;62.60;;;;;;5072499;28;20003;-79
2023/03/11 07:48:16;;;;;;;4.32;2.50;;;19.80;62.30;;;;;;5073024;28;20020;-78
2023/03/11 07:50:42;;;;;;;7.97;2.60;;;19.80;62.60;;;;;;5072990;28;20024;-78
2023/03/11 07:53:08;;;;;;;7.35;2.47;;;19.80;62.40;;;;;;5072424;28;20024;-77
2023/03/11 07:55:33;;;;;;;5.43;2.38;;;19.80;62.60;;;;;;5054359;28;20020;-77
2023/03/11 07:57:59;;;;;;;6.65;2.50;;;19.80;62.40;;;;;;5072273;28;20032;-77
2023/03/11 08:00:25;;;;;;;6.63;2.92;;;19.80;62.40;;;;;;5072481;28;20448;-78
2023/03/11 08:02:51;;;;;;;6.45;2.78;;;19.80;62.70;;;;;;5072484;28;20032;-77
2023/03/11 08:05:19;;;;;;;5.25;2.70;;;19.80;62.50;;;;;;5072306;28;20040;-78
2023/03/11 08:07:45;;;;;;;9.05;2.72;;;19.80;63.00;;;;;;5037804;28;20123;-78
2023/03/11 08:10:11;;;;;;;4.32;2.67;;;19.80;62.70;;;;;;5072384;28;20070;-77
2023/03/11 08:12:37;;;;;;;5.15;2.90;;;19.80;62.60;;;;;;5072461;28;20029;-78
2023/03/11 08:15:04;;;;;;;6.30;2.88;;;19.80;62.30;;;;;;5072630;28;20028;-78
2023/03/11 08:17:29;;;;;;;6.32;2.65;;;19.90;62.50;;;;;;5072181;28;20150;-78
2023/03/11 08:19:55;;;;;;;4.75;2.85;;;19.90;62.30;;;;;;5055060;28;20119;-78
2023/03/11 08:22:21;;;;;;;5.70;2.70;;;19.90;62.10;;;;;;5072236;28;20024;-78
2023/03/11 08:24:51;;;;;;;6.28;2.38;;;19.90;62.00;;;;;;5072286;28;20504;-78
2023/03/11 08:27:17;;;;;;;5.63;2.83;;;19.90;62.20;;;;;;5072143;28;20032;-77
2023/03/11 08:29:43;;;;;;;5.55;2.55;;;19.90;62.40;;;;;;5072299;28;20035;-78
2023/03/11 08:32:08;;;;;;;4.45;2.47;;;19.90;62.50;;;;;;5072192;28;20025;-79
2023/03/11 08:34:34;;;;;;;5.25;2.75;;;19.90;63.20;;;;;;5072827;28;20027;-78
2023/03/11 08:37:00;;;;;;;5.13;2.55;;;19.90;62.80;;;;;;5071821;28;20029;-79
2023/03/11 08:39:26;;;;;;;5.28;3.03;;;19.90;63.00;;;;;;5072151;28;20047;-78
2023/03/11 08:41:52;;;;;;;5.13;2.50;;;19.90;62.40;;;;;;5072483;28;20460;-78
2023/03/11 08:44:18;;;;;;;5.22;2.90;;;19.90;62.30;;;;;;5054089;28;20033;-79
2023/03/11 08:46:44;;;;;;;6.85;2.70;;;19.90;62.80;;;;;;5053758;28;20119;-78
2023/03/11 08:49:10;;;;;;;3.75;2.63;;;19.90;62.30;;;;;;5054641;28;20112;-77
2023/03/11 08:51:35;;;;;;;6.07;2.75;;;19.90;63.00;;;;;;5072084;28;20103;-77
2023/03/11 08:54:03;;;;;;;5.10;2.80;;;19.90;62.20;;;;;;5054074;28;20020;-77
2023/03/11 08:56:29;;;;;;;6.90;2.75;;;20.00;62.20;;;;;;5071769;28;20029;-77
2023/03/11 08:58:54;;;;;;;6.13;2.65;;;19.90;62.90;;;;;;5071962;28;20078;-79
2023/03/11 09:01:21;;;;;;;8.07;2.50;;;20.00;62.30;;;;;;5071751;28;20029;-78
2023/03/11 09:03:47;;;;;;;4.47;2.70;;;19.90;62.50;;;;;;5071706;28;20044;-78
2023/03/11 09:06:15;;;;;;;5.63;2.95;;;19.90;62.50;;;;;;5053418;28;20032;-78
2023/03/11 09:08:42;;;;;;;7.60;3.22;;;19.90;63.10;;;;;;5054339;28;20059;-78
2023/03/11 09:11:09;;;;;;;5.95;3.03;;;19.90;63.00;;;;;;5033393;28;20025;-78
2023/03/11 09:13:35;;;;;;;6.32;3.15;;;19.90;62.90;;;;;;5051322;28;20369;-77
2023/03/11 09:16:01;;;;;;;5.35;2.78;;;19.90;62.70;;;;;;5029723;28;20488;-77
2023/03/11 09:18:28;;;;;;;5.20;2.95;;;19.90;62.60;;;;;;5019955;28;20389;-77
2023/03/11 09:20:57;;;;;;;7.85;2.85;;;19.90;62.90;;;;;;5021547;28;20040;-77
2023/03/11 09:23:23;;;;;;;5.70;3.20;;;19.90;63.00;;;;;;5049104;28;20114;-78
2023/03/11 09:25:49;;;;;;;5.72;3.03;;;19.90;63.20;;;;;;5048459;28;20021;-79
2023/03/11 09:28:14;;;;;;;6.85;3.20;;;19.90;62.50;;;;;;5035139;28;20422;-79
2023/03/11 09:30:40;;;;;;;6.13;2.63;;;19.90;63.00;;;;;;5052104;28;20043;-79
2023/03/11 09:33:06;;;;;;;5.63;2.95;;;20.00;62.80;;;;;;5051769;28;20078;-77
2023/03/11 09:35:32;;;;;;;6.30;2.72;;;19.90;62.40;;;;;;5048294;28;20028;-78
2023/03/11 09:37:58;;;;;;;5.38;2.90;;;19.90;62.40;;;;;;5035760;28;20021;-77
2023/03/11 09:40:27;;;;;;;5.13;2.88;;;19.90;62.60;;;;;;5039760;28;20025;-77
2023/03/11 09:43:24;;;;;;;5.33;2.90;;;19.90;62.80;;;;;;5055617;28;20025;-78
2023/03/11 09:46:21;;;;;;;5.65;3.28;;;19.90;62.70;;;;;;5005961;28;20112;-74
2023/03/11 09:48:53;;;;;;;5.57;2.88;;;19.90;62.50;;;;;;5017759;28;20064;-78
2023/03/11 09:51:26;;;;;;;5.85;3.05;;;19.90;64.20;;;;;;5036291;28;20109;-76
2023/03/11 09:54:02;;;;;;;6.93;3.10;;;19.90;62.70;;;;;;5054635;28;20033;-77
2023/03/11 09:56:29;;;;;;;5.78;2.80;;;19.90;62.60;;;;;;5054126;28;20499;-76
2023/03/11 09:59:01;;;;;;;7.57;3.58;;;19.90;62.90;;;;;;5036819;28;20029;-78
2023/03/11 10:01:33;;;;;;;5.32;3.10;;;19.90;62.80;;;;;;5054296;28;20029;-76
2023/03/11 10:04:45;;;;;;;6.40;3.03;;;19.90;62.70;;;;;;5054189;28;20128;-76
2023/03/11 10:07:20;;;;;;;5.90;3.08;;;19.90;62.90;;;;;;4977413;28;20558;-76
2023/03/11 10:09:56;;;;;;;5.07;2.97;;;19.90;62.70;;;;;;5042693;28;20493;-76
2023/03/11 10:12:46;;;;;;;5.85;3.33;;;19.90;63.00;;;;;;5017706;28;20476;-77
2023/03/11 10:15:48;;;;;;;6.93;3.28;;;19.90;62.80;;;;;;5054004;28;20094;-77
2023/03/11 10:18:35;;;;;;;5.78;3.03;;;19.90;62.80;;;;;;5054040;28;20063;-79
2023/03/11 10:21:28;;;;;;;8.55;2.90;;;20.00;64.00;;;;;;5054702;28;20036;-87
2023/03/11 10:24:05;;;;;;;5.93;3.30;;;19.90;64.00;;;;;;5053098;28;20064;-90
2023/03/11 10:26:34;;;;;;;7.82;3.67;;;19.70;57.80;;;;;;5036270;28;20400;-88
2023/03/11 10:29:15;;;;;;;5.82;3.20;;;19.40;51.60;;;;;;5061943;28;20032;-78
2023/03/11 10:32:33;;;;;;;5.75;3.00;;;19.30;50.10;;;;;;5064904;28;20025;-78
2023/03/11 10:35:21;;;;;;;6.78;3.03;;;19.40;51.90;;;;;;5064160;28;20409;-78
2023/03/11 10:38:04;;;;;;;5.82;3.33;;;19.50;53.30;;;;;;5052669;28;20025;-77
2023/03/11 10:40:39;;;;;;;5.82;2.75;;;19.60;54.60;;;;;;5057686;28;20047;-78
2023/03/11 10:43:11;;;;;;;8.32;3.00;;;19.60;55.50;;;;;;5059362;28;20032;-77
2023/03/11 10:45:42;;;;;;;5.18;2.83;;;19.70;55.90;;;;;;5052480;28;20041;-76
2023/03/11 10:48:10;;;;;;;4.03;2.67;;;19.70;56.20;;;;;;5038365;28;20102;-76
2023/03/11 10:50:40;;;;;;;5.63;2.55;;;19.70;56.60;;;;;;5070234;28;20025;-76
2023/03/11 10:53:14;;;;;;;4.50;2.65;;;19.70;56.80;;;;;;5060177;28;20049;-77
2023/03/11 10:55:47;;;;;;;6.22;2.45;;;19.70;57.10;;;;;;5055387;28;20116;-77
2023/03/11 10:58:19;;;;;;;5.03;2.90;;;19.80;57.50;;;;;;5059889;28;20381;-78
2023/03/11 11:00:45;;;;;;;5.47;2.80;;;19.80;57.60;;;;;;5047321;28;20033;-77
2023/03/11 11:03:22;;;;;;;3.90;2.40;;;19.80;57.70;;;;;;5052409;28;20116;-77
2023/03/11 11:06:05;;;;;;;5.20;2.72;;;19.80;57.70;;;;;;5049339;28;20033;-77
2023/03/11 11:08:32;;;;;;;6.75;2.42;;;19.80;57.90;;;;;;5065138;28;20029;-77
2023/03/11 11:11:00;;;;;;;4.97;2.67;;;19.80;58.10;;;;;;5060803;28;20040;-77
2023/03/11 11:13:33;;;;;;;6.65;2.70;;;19.90;58.40;;;;;;5050947;28;20500;-77
2023/03/11 11:16:19;;;;;;;8.85;2.97;;;19.90;58.70;;;;;;5034062;28;20040;-76
2023/03/11 11:18:49;;;;;;;10.77;3.50;;;19.90;58.60;;;;;;5039689;28;20040;-76
2023/03/11 11:21:27;;;;;;;6.53;2.58;;;20.00;59.60;;;;;;5049031;28;20393;-78
2023/03/11 11:24:20;;;;;;;15.15;3.53;;;20.10;61.00;;;;;;5051911;28;20028;-78
2023/03/11 11:27:28;;;;;;;9.30;3.30;;;20.10;61.40;;;;;;5038029;28;20032;-79
2023/03/11 11:30:23;;;;;;;11.70;3.30;;;20.30;61.20;;;;;;5002480;28;20042;-76
2023/03/11 11:32:55;;;;;;;12.55;3.85;;;20.30;60.20;;;;;;4981458;28;20042;-77
2023/03/11 11:35:23;;;;;;;19.60;4.40;;;20.30;61.60;;;;;;5035141;28;20037;-75
2023/03/11 11:37:53;;;;;;;24.92;4.60;;;20.30;62.30;;;;;;5059143;28;20492;-79
2023/03/11 11:40:28;;;;;;;30.67;5.07;;;20.30;62.30;;;;;;5056388;28;20028;-77
2023/03/11 11:43:15;;;;;;;28.90;4.38;;;20.30;62.60;;;;;;5068460;28;20033;-75
2023/03/11 11:45:51;;;;;;;23.25;5.30;;;20.30;63.20;;;;;;5053278;28;20080;-77
2023/03/11 11:48:24;;;;;;;21.65;5.07;;;20.30;62.60;;;;;;5031737;28;20110;-77
2023/03/11 11:50:59;;;;;;;21.55;5.03;;;20.20;61.60;;;;;;5031641;28;20021;-77
2023/03/11 11:53:47;;;;;;;26.98;5.25;;;20.20;61.60;;;;;;5052293;28;20481;-77
2023/03/11 11:56:13;;;;;;;19.33;5.20;;;20.20;61.50;;;;;;5032828;28;20029;-78
2023/03/11 11:58:40;;;;;;;20.70;5.53;;;20.20;61.40;;;;;;5051540;28;20093;-77
2023/03/11 12:01:18;;;;;;;24.63;5.13;;;20.10;61.40;;;;;;5050619;28;20123;-81
2023/03/11 12:03:52;;;;;;;20.80;4.32;;;20.10;61.50;;;;;;5034081;28;20040;-76
2023/03/11 12:06:46;;;;;;;24.92;4.88;;;20.10;61.50;;;;;;5051819;28;20503;-78
2023/03/11 12:09:16;;;;;;;25.42;4.70;;;20.10;61.40;;;;;;5034468;28;20078;-77
2023/03/11 12:11:45;;;;;;;;;;;20.10;61.40;;;;;;5034763;28;20029;-77
2023/03/11 12:14:23;;;;;;;20.52;4.43;;;20.10;61.40;;;;;;5072844;23;19920;-82
2023/03/11 12:16:57;;;;;;;14.43;4.60;;;20.10;61.50;;;;;;5046667;28;20078;-83
2023/03/11 12:19:37;;;;;;;16.70;4.30;;;20.10;61.20;;;;;;5054746;28;20058;-85
2023/03/11 12:22:40;;;;;;;17.98;4.18;;;20.10;61.40;;;;;;5056824;28;20039;-82
2023/03/11 12:25:21;;;;;;;22.95;4.47;;;20.10;61.40;;;;;;5053778;28;20029;-82
2023/03/11 12:27:56;;;;;;;15.45;4.22;;;20.10;61.40;;;;;;5041200;28;20052;-80
2023/03/11 12:30:47;;;;;;;21.88;5.22;;;20.10;61.40;;;;;;5047289;28;20091;-83
2023/03/11 12:33:23;;;;;;;20.40;5.15;;;20.00;61.40;;;;;;5029505;28;20047;-86
2023/03/11 12:35:54;;;;;;;23.20;5.93;;;20.10;61.50;;;;;;5051300;28;20025;-83
2023/03/11 12:38:27;;;;;;;21.75;5.45;;;20.10;61.50;;;;;;5014635;28;20041;-84
2023/03/11 12:41:02;;;;;;;17.85;4.80;;;20.10;61.90;;;;;;5050615;28;20494;-85
2023/03/11 12:43:34;;;;;;;16.80;4.55;;;20.10;62.30;;;;;;5041959;28;20492;-83
2023/03/11 12:46:00;;;;;;;17.35;4.70;;;20.10;61.90;;;;;;5050023;28;20025;-85
2023/03/11 12:48:28;;;;;;;19.20;5.32;;;20.20;63.40;;;;;;5041689;28;20385;-83
2023/03/11 12:50:58;;;;;;;23.60;5.78;;;20.20;63.00;;;;;;5029993;28;20296;-87
2023/03/11 12:53:47;;;;;;;16.88;4.72;;;20.20;62.50;;;;;;5032664;28;20031;-87
2023/03/11 12:56:35;;;;;;;55.95;25.13;;;20.20;62.70;;;;;;5042362;28;20114;-86
2023/03/11 12:59:27;;;;;;;114.88;70.60;;;20.20;62.00;;;;;;5017258;28;20491;-86
2023/03/11 13:02:08;;;;;;;64.97;34.15;;;20.10;61.70;;;;;;5051305;28;20080;-81